Causeway — 5BVB3 — position and weather

sailwx.info

Track history (hours):
 
Tides and Currents Weather Stations Pressure Air Temp Water Temp Dewpoint Dewpoint Depression Visibility Wind Speed Wind Dir Waves Ship Positions

Causeway

Last reported at 2018-Feb-22 22:00 UTC. Time now 2018-Feb-22 22:24 UTC.
Position N 53°06' E 004°33'.

Length 91 m; draft 6.8 m.

Type: Dredging. MMSI: 210523000.

Date/timePositionNaut miles runAvg speedWind from/ knotsBaromVisibWave heightAir tempDewpointWater temp
2018-Feb-22 22:00N 53°06' E 004°33'0 0.5
2018-Feb-22 21:26N 53°06' E 004°33'0 1.1
2018-Feb-22 21:00N 53°06' E 004°33'611.4
2018-Feb-22 20:30N 53°03' E 004°41'1 1.6
2018-Feb-22 20:01N 53°03' E 004°41'0 0.0
2018-Feb-22 19:30N 53°03' E 004°41'2 4.7
2018-Feb-22 19:00N 53°04' E 004°38'4 7.8
2018-Feb-22 18:30N 53°06' E 004°33'0 0.5
2018-Feb-22 18:00N 53°06' E 004°33'3 5.1
2018-Feb-22 17:30N 53°05' E 004°36'4 7.3
2018-Feb-22 17:01N 53°03' E 004°41'0 0.1
2018-Feb-22 16:30N 53°03' E 004°41'1 1.1
2018-Feb-22 16:00N 53°03' E 004°40'0 0.8
2018-Feb-22 15:30N 53°03' E 004°40'0 0.2
2018-Feb-22 15:00N 53°03' E 004°40'0 0.1
2018-Feb-22 14:30N 53°03' E 004°39'0 0.2
2018-Feb-22 14:00N 53°03' E 004°39'0 0.2
2018-Feb-22 13:31N 53°03' E 004°39'1 1.2
2018-Feb-22 13:00N 53°03' E 004°39'4 7.5
2018-Feb-22 12:30N 53°05' E 004°33'1 1.1
2018-Feb-22 11:59N 53°06' E 004°33'0 0.8
2018-Feb-22 11:29N 53°06' E 004°33'611.9
2018-Feb-22 11:00N 53°03' E 004°41'0 1.0
2018-Feb-22 10:30N 53°03' E 004°41'0 0.2
2018-Feb-22 10:00N 53°03' E 004°41'3 6.2
2018-Feb-22 09:31N 53°05' E 004°37'3 5.8
2018-Feb-22 08:58N 53°06' E 004°33'1 1.2
2018-Feb-22 08:31N 53°06' E 004°33'1 1.6
2018-Feb-22 08:00N 53°06' E 004°34'611.3
2018-Feb-22 07:30N 53°03' E 004°41'0 0.1
2018-Feb-22 07:00N 53°03' E 004°41'0 0.0
2018-Feb-22 06:30N 53°03' E 004°41'3 5.9
2018-Feb-22 06:01N 53°04' E 004°38'3 6.5
2018-Feb-22 05:30N 53°06' E 004°33'0 0.8
2018-Feb-22 04:59N 53°06' E 004°33'1 2.5
2018-Feb-22 04:31N 53°05' E 004°34'5 9.2
2018-Feb-22 03:56N 53°03' E 004°41'0 0.1
2018-Feb-22 03:29N 53°03' E 004°41'0 0.0
2018-Feb-22 02:59N 53°03' E 004°41'3 6.2
2018-Feb-22 02:30N 53°04' E 004°37'3 6.3
2018-Feb-22 02:00N 53°06' E 004°32'0 0.7
2018-Feb-22 01:22N 53°06' E 004°33'0 1.1
2018-Feb-22 01:00N 53°06' E 004°33'611.2
2018-Feb-22 00:30N 53°03' E 004°41'1 1.2
2018-Feb-22 00:00N 53°03' E 004°41'0 0.0
2018-Feb-21 23:30N 53°03' E 004°41'0 0.6
2018-Feb-21 23:00N 53°03' E 004°41'4 7.9
2018-Feb-21 22:30N 53°05' E 004°36'2 3.5
2018-Feb-21 21:56N 53°06' E 004°33'0 1.0
2018-Feb-21 21:29N 53°06' E 004°33'4 8.2
2018-Feb-21 21:00N 53°04' E 004°38'2 4.5
2018-Feb-21 20:29N 53°03' E 004°41'0 0.0
2018-Feb-21 19:59N 53°03' E 004°41'2 3.9
2018-Feb-21 19:30N 53°04' E 004°39'4 8.3
2018-Feb-21 18:59N 53°06' E 004°33'0 0.2
2018-Feb-21 18:29N 53°06' E 004°33'2 3.8
2018-Feb-21 18:00N 53°04' E 004°33'713.4
2018-Feb-21 17:30N 52°57' E 004°33'5 9.5
2018-Feb-21 17:00N 52°54' E 004°39'611.9
2018-Feb-21 16:30N 52°58' E 004°46'1 2.2
2018-Feb-21 15:59N 52°57' E 004°47'0 0.0
2018-Feb-21 15:29N 52°57' E 004°47'0 0.0
2018-Feb-21 14:59N 52°57' E 004°47'0 0.0
2018-Feb-21 14:29N 52°57' E 004°47'0 0.0
2018-Feb-21 13:59N 52°57' E 004°47'0 0.0
2018-Feb-21 13:26N 52°57' E 004°47'0 0.0
2018-Feb-21 12:59N 52°57' E 004°47'0 0.0
2018-Feb-21 12:29N 52°57' E 004°47'0 0.0
2018-Feb-21 11:59N 52°57' E 004°47'0 0.0
2018-Feb-21 11:29N 52°57' E 004°47'0 0.0
2018-Feb-21 10:59N 52°57' E 004°47'0 0.0
2018-Feb-21 10:29N 52°57' E 004°47'0 0.0
2018-Feb-21 09:59N 52°57' E 004°47'0 0.0
2018-Feb-21 09:29N 52°57' E 004°47'0 0.0
2018-Feb-21 09:00N 52°57' E 004°47'1 2.1
2018-Feb-21 08:31N 52°58' E 004°46'713.1
2018-Feb-21 08:00N 52°53' E 004°38'5 9.1
2018-Feb-21 07:30N 52°57' E 004°33'5 9.6
2018-Feb-21 07:00N 53°01' E 004°37'3 6.6
2018-Feb-21 06:30N 53°03' E 004°41'0 0.0
2018-Feb-21 06:00N 53°03' E 004°41'0 0.2
2018-Feb-21 05:30N 53°03' E 004°41'3 6.9
2018-Feb-21 05:00N 53°04' E 004°36'3 5.3
2018-Feb-21 04:30N 53°06' E 004°33'0 0.8
2018-Feb-21 04:00N 53°06' E 004°33'4 8.5
2018-Feb-21 03:30N 53°03' E 004°39'2 3.5
2018-Feb-21 03:00N 53°03' E 004°41'0 0.0
2018-Feb-21 02:30N 53°03' E 004°41'2 3.5
2018-Feb-21 02:00N 53°03' E 004°39'4 8.9
2018-Feb-21 01:30N 53°06' E 004°32'0 0.9
2018-Feb-21 01:00N 53°06' E 004°33'1 1.9
2018-Feb-21 00:30N 53°05' E 004°34'510.7
2018-Feb-21 00:00N 53°03' E 004°41'0 0.1
2018-Feb-20 23:30N 53°03' E 004°41'0 0.0
2018-Feb-20 23:00N 53°03' E 004°41'4 7.7
2018-Feb-20 22:30N 53°05' E 004°36'2 4.5
2018-Feb-20 22:01N 53°06' E 004°33'0 0.8
2018-Feb-20 21:28N 53°06' E 004°33'2 5.3
2018-Feb-20 21:00N 53°05' E 004°36'4 7.8
2018-Feb-20 20:30N 53°03' E 004°41'0 0.0
2018-Feb-20 20:00N 53°03' E 004°41'2 3.4
2018-Feb-20 19:30N 53°04' E 004°39'4 8.6
2018-Feb-20 19:00N 53°06' E 004°33'0 0.4
2018-Feb-20 18:31N 53°06' E 004°33'1 1.0
2018-Feb-20 18:00N 53°06' E 004°33'510.4
2018-Feb-20 17:30N 53°03' E 004°40'1 2.2
2018-Feb-20 17:00N 53°03' E 004°41'0 0.0
2018-Feb-20 16:30N 53°03' E 004°41'1 3.0
2018-Feb-20 16:00N 53°03' E 004°39'5 9.3
2018-Feb-20 15:31N 53°06' E 004°33'0 0.5
2018-Feb-20 15:00N 53°06' E 004°33'2 3.4
2018-Feb-20 14:30N 53°05' E 004°35'5 9.2
2018-Feb-20 14:00N 53°03' E 004°41'0 0.0
2018-Feb-20 13:30N 53°03' E 004°41'1 1.2
2018-Feb-20 13:00N 53°03' E 004°40'510.0
2018-Feb-20 12:30N 53°05' E 004°33'1 1.3
2018-Feb-20 12:00N 53°06' E 004°33'0 0.5
2018-Feb-20 11:30N 53°06' E 004°33'4 8.3
2018-Feb-20 11:00N 53°04' E 004°39'2 3.9
2018-Feb-20 10:30N 53°03' E 004°41'0 0.0
2018-Feb-20 10:00N 53°03' E 004°41'1 1.8
2018-Feb-20 09:30N 53°03' E 004°40'510.1
2018-Feb-20 09:00N 53°06' E 004°34'0 0.2
2018-Feb-20 08:08N 53°06' E 004°33'1 6.4
2018-Feb-20 08:00N 53°06' E 004°34'4 9.0
2018-Feb-20 07:30N 53°03' E 004°40'1 1.6
2018-Feb-20 07:00N 53°03' E 004°41'0 0.1
2018-Feb-20 06:30N 53°03' E 004°41'2 4.7
2018-Feb-20 06:00N 53°04' E 004°38'4 7.6
2018-Feb-20 05:30N 53°06' E 004°33'0 0.2
2018-Feb-20 05:01N 53°06' E 004°33'0 0.5
2018-Feb-20 04:30N 53°06' E 004°33'611.7
2018-Feb-20 04:00N 53°03' E 004°41'0 0.1
2018-Feb-20 03:30N 53°03' E 004°41'0 0.1
2018-Feb-20 03:00N 53°03' E 004°41'4 8.0
2018-Feb-20 02:30N 53°05' E 004°36'2 4.5
2018-Feb-20 02:00N 53°06' E 004°33'0 0.9
2018-Feb-20 01:30N 53°06' E 004°33'3 6.8
2018-Feb-20 01:00N 53°04' E 004°37'3 5.4
2018-Feb-20 00:30N 53°03' E 004°41'0 0.0
2018-Feb-20 00:00N 53°03' E 004°41'0 0.6
2018-Feb-19 23:30N 53°03' E 004°41'510.1
2018-Feb-19 23:00N 53°06' E 004°34'1 1.6
2018-Feb-19 22:31N 53°06' E 004°33'1 1.1
2018-Feb-19 22:00N 53°06' E 004°33'510.2
2018-Feb-19 21:30N 53°03' E 004°40'1 2.3
2018-Feb-19 21:00N 53°03' E 004°41'0 0.2
2018-Feb-19 20:30N 53°03' E 004°41'1 2.5
2018-Feb-19 20:00N 53°04' E 004°40'5 9.6
2018-Feb-19 19:30N 53°06' E 004°33'0 0.5
2018-Feb-19 18:59N 53°06' E 004°33'0 1.0
2018-Feb-19 18:30N 53°06' E 004°33'611.3
2018-Feb-19 18:00N 53°03' E 004°41'1 1.3
2018-Feb-19 17:30N 53°03' E 004°41'0 0.1
2018-Feb-19 17:00N 53°03' E 004°41'2 4.3
2018-Feb-19 16:30N 53°04' E 004°38'4 7.7
2018-Feb-19 16:00N 53°06' E 004°33'0 0.5
2018-Feb-19 15:30N 53°06' E 004°33'1 1.2
2018-Feb-19 15:00N 53°06' E 004°34'611.3
2018-Feb-19 14:30N 53°03' E 004°41'0 0.1
2018-Feb-19 14:00N 53°03' E 004°41'0 0.9
2018-Feb-19 13:30N 53°03' E 004°41'5 9.3
2018-Feb-19 13:00N 53°05' E 004°34'1 2.2
2018-Feb-19 12:30N 53°06' E 004°33'1 1.0
2018-Feb-19 12:01N 53°06' E 004°33'611.6
2018-Feb-19 11:30N 53°03' E 004°41'0 0.2
2018-Feb-19 11:00N 53°03' E 004°41'0 0.0
2018-Feb-19 10:30N 53°03' E 004°41'0 0.4
2018-Feb-19 10:00N 53°03' E 004°41'3 5.2
2018-Feb-19 09:30N 53°04' E 004°38'3 6.5
2018-Feb-19 09:01N 53°06' E 004°33'0 0.7
2018-Feb-19 08:30N 53°06' E 004°33'1 1.4
2018-Feb-19 08:00N 53°06' E 004°34'611.7
2018-Feb-19 07:31N 53°03' E 004°42'0 0.1
2018-Feb-19 07:00N 53°03' E 004°41'0 0.1
2018-Feb-19 06:30N 53°03' E 004°41'0 0.3
2018-Feb-19 06:00N 53°03' E 004°41'3 6.7
2018-Feb-19 05:30N 53°04' E 004°37'3 4.4
2018-Feb-19 04:55N 53°06' E 004°33'0 0.3
2018-Feb-19 04:30N 53°06' E 004°33'2 3.9
2018-Feb-19 04:00N 53°05' E 004°36'4 8.5
2018-Feb-19 03:30N 53°03' E 004°41'0 0.1
2018-Feb-19 03:00N 53°03' E 004°41'0 0.1
2018-Feb-19 02:30N 53°03' E 004°41'4 7.4
2018-Feb-19 02:00N 53°05' E 004°36'2 4.5
2018-Feb-19 01:30N 53°06' E 004°33'0 0.4
2018-Feb-19 01:00N 53°06' E 004°33'3 6.4
2018-Feb-19 00:30N 53°04' E 004°37'3 5.9
2018-Feb-19 00:00N 53°03' E 004°41'0 0.1
2018-Feb-18 23:30N 53°03' E 004°41'0 0.9
2018-Feb-18 23:00N 53°03' E 004°41'1 1.2
2018-Feb-18 22:30N 53°03' E 004°40'4 7.5
2018-Feb-18 22:00N 53°05' E 004°35'1 2.6
2018-Feb-18 21:30N 53°06' E 004°33'0 0.9
2018-Feb-18 21:00N 53°06' E 004°33'3 6.7
2018-Feb-18 20:30N 53°04' E 004°38'3 5.7
2018-Feb-18 20:00N 53°03' E 004°41'0 0.0
2018-Feb-18 19:30N 53°03' E 004°41'0 0.7
2018-Feb-18 19:00N 53°03' E 004°41'4 8.1
2018-Feb-18 18:30N 53°05' E 004°36'2 3.6
2018-Feb-18 18:00N 53°06' E 004°33'0 0.8
2018-Feb-18 17:30N 53°06' E 004°33'2 4.2
2018-Feb-18 17:00N 53°05' E 004°36'4 8.3
2018-Feb-18 16:30N 53°03' E 004°41'0 0.0
2018-Feb-18 16:00N 53°03' E 004°41'0 0.9
2018-Feb-18 15:30N 53°03' E 004°41'4 8.4
2018-Feb-18 14:59N 53°05' E 004°35'1 2.9
2018-Feb-18 14:30N 53°06' E 004°32'0 0.8
2018-Feb-18 14:00N 53°06' E 004°33'4 8.6
2018-Feb-18 13:30N 53°03' E 004°39'2 3.4
2018-Feb-18 13:00N 53°03' E 004°41'0 0.0
2018-Feb-18 12:30N 53°03' E 004°41'3 6.8
2018-Feb-18 12:00N 53°04' E 004°36'3 5.6
2018-Feb-18 11:30N 53°06' E 004°33'0 0.6
2018-Feb-18 11:00N 53°06' E 004°33'4 7.6
2018-Feb-18 10:30N 53°04' E 004°38'2 4.7
2018-Feb-18 10:00N 53°03' E 004°41'0 0.1
2018-Feb-18 09:30N 53°03' E 004°41'1 1.7
2018-Feb-18 09:00N 53°03' E 004°40'510.3
2018-Feb-18 08:30N 53°06' E 004°33'1 1.1
2018-Feb-18 08:00N 53°06' E 004°33'1 1.2
2018-Feb-18 07:30N 53°06' E 004°33'510.2
2018-Feb-18 07:00N 53°03' E 004°40'1 2.5
2018-Feb-18 06:30N 53°03' E 004°41'0 0.0
2018-Feb-18 06:00N 53°03' E 004°41'0 0.7
2018-Feb-18 05:30N 53°03' E 004°41'0 0.9
2018-Feb-18 05:01N 53°03' E 004°41'4 8.7
2018-Feb-18 04:30N 53°05' E 004°34'1 2.3
2018-Feb-18 04:00N 53°06' E 004°33'0 0.5
2018-Feb-18 03:30N 53°06' E 004°33'510.4
2018-Feb-18 03:00N 53°03' E 004°40'1 1.7
2018-Feb-18 02:30N 53°03' E 004°41'0 0.1
2018-Feb-18 02:01N 53°03' E 004°41'0 0.3
2018-Feb-18 01:31N 53°03' E 004°41'510.3
2018-Feb-18 01:00N 53°06' E 004°34'1 1.4
2018-Feb-18 00:31N 53°06' E 004°33'1 1.1
2018-Feb-18 00:00N 53°06' E 004°33'510.4
2018-Feb-17 23:30N 53°03' E 004°40'1 1.8
2018-Feb-17 23:00N 53°03' E 004°41'0 0.3
2018-Feb-17 22:30N 53°03' E 004°41'3 5.7
2018-Feb-17 22:00N 53°04' E 004°37'3 6.3
2018-Feb-17 21:30N 53°06' E 004°33'0 0.2
2018-Feb-17 21:00N 53°06' E 004°33'3 5.4
2018-Feb-17 20:30N 53°05' E 004°37'3 6.8
2018-Feb-17 20:00N 53°03' E 004°41'0 0.0
2018-Feb-17 19:30N 53°03' E 004°42'1 2.1
2018-Feb-17 19:00N 53°03' E 004°40'510.1
2018-Feb-17 18:30N 53°06' E 004°33'0 0.4
2018-Feb-17 17:59N 53°06' E 004°33'1 1.3
2018-Feb-17 17:30N 53°06' E 004°33'612.1
2018-Feb-17 17:01N 53°03' E 004°41'0 0.1
2018-Feb-17 16:30N 53°03' E 004°41'0 0.3
2018-Feb-17 16:00N 53°03' E 004°42'1 2.4
2018-Feb-17 15:30N 53°04' E 004°40'4 8.7
2018-Feb-17 15:00N 53°05' E 004°33'1 1.1
2018-Feb-17 14:31N 53°06' E 004°33'1 2.0
2018-Feb-17 14:00N 53°07' E 004°33'611.0
2018-Feb-17 13:28N 53°10' E 004°41'1011.4
2018-Feb-17 12:37N 53°17' E 004°53'111.3
2018-Feb-17 12:30N 53°18' E 004°54'5 9.5
2018-Feb-17 12:00N 53°19' E 005°02'0 0.2
2018-Feb-17 11:30N 53°19' E 005°02'3 6.7
2018-Feb-17 11:00N 53°19' E 004°56'3 6.7
2018-Feb-17 10:30N 53°20' E 004°51'0 0.1
2018-Feb-17 10:00N 53°20' E 004°51'3 5.8
2018-Feb-17 09:30N 53°19' E 004°56'5 9.4
2018-Feb-17 09:00N 53°19' E 005°04'3 6.7
2018-Feb-17 08:30N 53°19' E 004°58'4 8.1
2018-Feb-17 08:00N 53°20' E 004°51'0 0.3
2018-Feb-17 07:29N 53°20' E 004°51'3 6.1
2018-Feb-17 07:00N 53°20' E 004°56'5 9.5
2018-Feb-17 06:31N 53°19' E 005°04'2 3.9
2018-Feb-17 06:00N 53°19' E 005°00'5 9.1
2018-Feb-17 05:29N 53°20' E 004°52'1 2.0
2018-Feb-17 05:00N 53°20' E 004°51'2 3.2
2018-Feb-17 04:30N 53°20' E 004°54'611.7
2018-Feb-17 04:00N 53°19' E 005°03'1 2.9
2018-Feb-17 03:30N 53°19' E 005°01'3 6.6
2018-Feb-17 03:00N 53°19' E 004°55'2 5.0
2018-Feb-17 02:30N 53°20' E 004°51'1 1.1
2018-Feb-17 02:01N 53°20' E 004°51'612.7
2018-Feb-17 01:30N 53°19' E 005°01'1 2.4
2018-Feb-17 01:01N 53°19' E 005°03'3 6.0
2018-Feb-17 00:30N 53°19' E 004°58'4 8.5
2018-Feb-17 00:00N 53°19' E 004°51'0 1.0
2018-Feb-16 23:30N 53°20' E 004°51'1 1.4
2018-Feb-16 23:00N 53°19' E 004°52'612.4
2018-Feb-16 22:30N 53°19' E 005°03'0 0.9
2018-Feb-16 22:00N 53°19' E 005°02'3 6.9
2018-Feb-16 21:30N 53°19' E 004°56'3 5.8
2018-Feb-16 21:00N 53°21' E 004°53'0 0.2
2018-Feb-16 20:31N 53°21' E 004°53'2 4.2
2018-Feb-16 20:00N 53°20' E 004°56'5 9.9
2018-Feb-16 19:31N 53°19' E 005°04'1 1.0
2018-Feb-16 19:00N 53°19' E 005°03'4 8.0
2018-Feb-16 18:30N 53°19' E 004°56'3 6.2
2018-Feb-16 17:59N 53°20' E 004°51'0 0.4
2018-Feb-16 17:28N 53°20' E 004°51'4 8.3
2018-Feb-16 17:00N 53°17' E 004°47'714.0
2018-Feb-16 16:30N 53°12' E 004°40'713.4
2018-Feb-16 16:00N 53°06' E 004°33'3 6.0
2018-Feb-16 15:30N 53°05' E 004°37'3 6.5
2018-Feb-16 15:00N 53°03' E 004°41'1 2.1
2018-Feb-16 14:30N 53°03' E 004°40'0 0.6
2018-Feb-16 14:00N 53°03' E 004°40'0 0.4
2018-Feb-16 13:30N 53°03' E 004°40'0 0.3
2018-Feb-16 13:00N 53°03' E 004°40'0 0.8
2018-Feb-16 12:30N 53°03' E 004°41'0 0.5
2018-Feb-16 12:00N 53°03' E 004°41'1 2.5
2018-Feb-16 11:30N 53°03' E 004°39'0 0.6
2018-Feb-16 11:00N 53°03' E 004°40'1 1.7
2018-Feb-16 10:31N 53°03' E 004°41'3 6.2
2018-Feb-16 10:00N 53°04' E 004°37'3 5.9
2018-Feb-16 09:30N 53°06' E 004°33'0 0.3
2018-Feb-16 09:00N 53°06' E 004°33'2 3.2
2018-Feb-16 08:30N 53°05' E 004°35'5 9.4
2018-Feb-16 08:00N 53°03' E 004°41'0 0.1
2018-Feb-16 07:30N 53°03' E 004°41'1 1.2
2018-Feb-16 07:00N 53°03' E 004°41'510.6
2018-Feb-16 06:30N 53°06' E 004°33'0 0.9
2018-Feb-16 05:59N 53°06' E 004°33'0 0.2
2018-Feb-16 05:30N 53°06' E 004°33'3 6.4
2018-Feb-16 05:00N 53°05' E 004°37'3 6.4
2018-Feb-16 04:30N 53°03' E 004°42'0 0.0
2018-Feb-16 04:00N 53°03' E 004°41'3 5.5
2018-Feb-16 03:30N 53°04' E 004°38'3 6.7
2018-Feb-16 03:00N 53°06' E 004°33'0 0.4
2018-Feb-16 02:31N 53°06' E 004°33'2 4.2
2018-Feb-16 02:00N 53°05' E 004°36'4 8.5
2018-Feb-16 01:30N 53°03' E 004°42'0 0.0
2018-Feb-16 01:00N 53°03' E 004°42'0 0.4
2018-Feb-16 00:30N 53°03' E 004°41'5 9.1
2018-Feb-16 00:00N 53°06' E 004°35'2 3.0
2018-Feb-15 23:30N 53°06' E 004°33'0 0.2
2018-Feb-15 23:00N 53°06' E 004°33'3 5.5
2018-Feb-15 22:30N 53°05' E 004°37'3 6.8
2018-Feb-15 22:00N 53°03' E 004°41'0 0.0
2018-Feb-15 21:30N 53°03' E 004°41'2 3.0
2018-Feb-15 21:00N 53°03' E 004°39'5 9.3
2018-Feb-15 20:30N 53°06' E 004°33'0 0.2
2018-Feb-15 20:00N 53°06' E 004°33'0 1.0
2018-Feb-15 19:30N 53°06' E 004°33'510.5
2018-Feb-15 19:00N 53°03' E 004°40'1 2.2
2018-Feb-15 18:30N 53°03' E 004°42'0 0.0
2018-Feb-15 18:00N 53°03' E 004°42'1 1.5
2018-Feb-15 17:30N 53°03' E 004°41'510.3
2018-Feb-15 17:01N 53°06' E 004°33'0 0.8
2018-Feb-15 16:30N 53°06' E 004°33'1 1.1
2018-Feb-15 16:00N 53°06' E 004°33'4 7.8
2018-Feb-15 15:30N 53°04' E 004°38'2 4.9
2018-Feb-15 15:00N 53°03' E 004°42'0 0.0
2018-Feb-15 14:30N 53°03' E 004°42'2 4.7
2018-Feb-15 14:00N 53°04' E 004°38'4 7.5
2018-Feb-15 13:31N 53°06' E 004°33'0 0.4
2018-Feb-15 13:00N 53°06' E 004°33'1 1.4
2018-Feb-15 12:30N 53°06' E 004°34'611.3
2018-Feb-15 12:00N 53°03' E 004°42'0 0.2
2018-Feb-15 11:30N 53°03' E 004°41'0 0.2
2018-Feb-15 11:00N 53°03' E 004°41'4 8.8
2018-Feb-15 10:30N 53°05' E 004°36'2 3.5
2018-Feb-15 10:00N 53°06' E 004°33'0 0.6
2018-Feb-15 09:30N 53°06' E 004°33'3 5.7
2018-Feb-15 09:00N 53°05' E 004°37'3 6.7
2018-Feb-15 08:30N 53°03' E 004°41'0 0.1
2018-Feb-15 08:00N 53°03' E 004°41'1 1.5
2018-Feb-15 07:30N 53°03' E 004°41'0 0.5
2018-Feb-15 06:52N 53°04' E 004°41'0 0.0
2018-Feb-15 06:25N 53°04' E 004°40'0 0.0
2018-Feb-15 05:52N 53°04' E 004°40'0 0.0
2018-Feb-15 05:28N 53°04' E 004°40'0 0.0
2018-Feb-15 04:58N 53°04' E 004°40'0 0.0
2018-Feb-15 04:28N 53°04' E 004°40'0 0.0
2018-Feb-15 03:58N 53°04' E 004°40'0 0.2
2018-Feb-15 03:30N 53°04' E 004°40'0 0.3
2018-Feb-15 03:00N 53°03' E 004°40'0 0.9
2018-Feb-15 02:30N 53°04' E 004°39'4 8.8
2018-Feb-15 02:00N 53°07' E 004°34'1 1.8
2018-Feb-15 01:27N 53°06' E 004°33'1 1.1
2018-Feb-15 00:56N 53°06' E 004°33'511.9
2018-Feb-15 00:30N 53°03' E 004°40'1 2.1
2018-Feb-15 00:00N 53°03' E 004°41'0 0.2
2018-Feb-14 23:30N 53°03' E 004°41'3 5.9
2018-Feb-14 23:00N 53°04' E 004°37'3 6.3
2018-Feb-14 22:30N 53°06' E 004°33'0 0.1
2018-Feb-14 22:00N 53°06' E 004°33'4 7.2
2018-Feb-14 21:30N 53°04' E 004°38'3 5.2
2018-Feb-14 21:00N 53°03' E 004°41'0 0.1
2018-Feb-14 20:29N 53°03' E 004°41'2 3.6
2018-Feb-14 20:00N 53°04' E 004°39'4 8.5
2018-Feb-14 19:30N 53°06' E 004°33'0 0.2
2018-Feb-14 19:00N 53°06' E 004°33'1 1.2
2018-Feb-14 18:30N 53°06' E 004°33'510.9
2018-Feb-14 18:00N 53°03' E 004°40'1 1.8
2018-Feb-14 17:30N 53°03' E 004°41'0 0.2
2018-Feb-14 17:00N 53°03' E 004°41'4 9.0
2018-Feb-14 16:30N 53°05' E 004°35'2 3.2
2018-Feb-14 16:00N 53°06' E 004°33'0 0.1
2018-Feb-14 15:27N 53°06' E 004°33'1 3.2
2018-Feb-14 15:00N 53°06' E 004°35'5 9.6
2018-Feb-14 14:30N 53°03' E 004°41'0 0.0
2018-Feb-14 14:00N 53°03' E 004°41'1 2.2
2018-Feb-14 13:30N 53°03' E 004°40'5 9.6
2018-Feb-14 13:00N 53°05' E 004°33'0 0.9
2018-Feb-14 12:30N 53°06' E 004°33'1 1.8
2018-Feb-14 12:00N 53°06' E 004°34'5 9.8
2018-Feb-14 11:30N 53°03' E 004°41'0 0.7
2018-Feb-14 11:00N 53°03' E 004°41'0 0.5
2018-Feb-14 10:30N 53°03' E 004°41'0 0.1
2018-Feb-14 10:00N 53°03' E 004°41'2 4.8
2018-Feb-14 09:30N 53°04' E 004°38'4 7.5
2018-Feb-14 09:00N 53°06' E 004°33'0 0.2
2018-Feb-14 08:30N 53°06' E 004°33'1 1.1
2018-Feb-14 08:00N 53°06' E 004°33'612.3
2018-Feb-14 07:30N 53°03' E 004°41'0 0.3
2018-Feb-14 07:00N 53°03' E 004°41'0 0.0
2018-Feb-14 06:30N 53°03' E 004°41'3 5.3
2018-Feb-14 06:00N 53°04' E 004°38'4 6.2
2018-Feb-14 05:26N 53°06' E 004°33'0 0.3
2018-Feb-14 04:54N 53°06' E 004°33'0 1.2
2018-Feb-14 04:30N 53°06' E 004°33'612.1
2018-Feb-14 04:00N 53°03' E 004°41'0 0.1
2018-Feb-14 03:30N 53°03' E 004°41'0 0.0
2018-Feb-14 03:00N 53°03' E 004°41'4 7.6
2018-Feb-14 02:30N 53°05' E 004°36'2 4.6
2018-Feb-14 02:00N 53°06' E 004°33'0 0.5
2018-Feb-14 01:29N 53°06' E 004°33'2 4.9
2018-Feb-14 01:01N 53°05' E 004°36'4 7.8
2018-Feb-14 00:30N 53°03' E 004°41'0 0.1
2018-Feb-14 00:00N 53°03' E 004°41'1 1.3
2018-Feb-13 23:30N 53°03' E 004°40'510.1
2018-Feb-13 23:00N 53°06' E 004°33'1 1.0
2018-Feb-13 22:30N 53°06' E 004°32'1 2.5
2018-Feb-13 22:00N 53°05' E 004°34'5 9.9
2018-Feb-13 21:30N 53°03' E 004°41'0 0.1
2018-Feb-13 21:00N 53°03' E 004°41'0 0.4
2018-Feb-13 20:30N 53°03' E 004°41'3 5.2
2018-Feb-13 20:00N 53°04' E 004°38'3 6.7
2018-Feb-13 19:29N 53°06' E 004°32'0 0.5
2018-Feb-13 19:00N 53°06' E 004°33'1 1.3
2018-Feb-13 18:30N 53°06' E 004°34'611.5
2018-Feb-13 18:00N 53°03' E 004°41'0 0.2
2018-Feb-13 17:30N 53°03' E 004°41'0 0.8
2018-Feb-13 17:00N 53°03' E 004°41'4 7.8
2018-Feb-13 16:30N 53°05' E 004°36'2 4.1
2018-Feb-13 16:00N 53°06' E 004°33'0 0.1
2018-Feb-13 15:30N 53°06' E 004°33'1 2.8
2018-Feb-13 15:00N 53°06' E 004°35'5 9.7
2018-Feb-13 14:30N 53°03' E 004°41'0 0.0
2018-Feb-13 14:00N 53°03' E 004°41'1 2.8
2018-Feb-13 13:30N 53°04' E 004°40'4 8.8
2018-Feb-13 13:00N 53°06' E 004°34'1 1.6
2018-Feb-13 12:30N 53°06' E 004°33'1 1.2
2018-Feb-13 12:00N 53°06' E 004°33'5 9.8
2018-Feb-13 11:30N 53°03' E 004°40'1 2.7
2018-Feb-13 11:00N 53°03' E 004°41'0 0.1
2018-Feb-13 10:30N 53°03' E 004°41'0 0.6
2018-Feb-13 10:00N 53°03' E 004°41'4 8.5
2018-Feb-13 09:30N 53°06' E 004°36'2 3.2
2018-Feb-13 09:00N 53°06' E 004°33'0 0.9
2018-Feb-13 08:30N 53°06' E 004°33'4 8.6
2018-Feb-13 08:00N 53°02' E 004°33'612.0
2018-Feb-13 07:30N 52°56' E 004°34'4 7.4
2018-Feb-13 07:01N 52°56' E 004°40'611.1
2018-Feb-13 06:31N 52°59' E 004°48'1 0.9
2018-Feb-13 05:58N 52°59' E 004°49'0 0.0
2018-Feb-13 05:28N 52°59' E 004°49'0 0.0
2018-Feb-13 04:58N 52°59' E 004°49'0 0.0
2018-Feb-13 04:28N 52°59' E 004°49'0 0.0
2018-Feb-13 03:58N 52°59' E 004°49'0 0.0
2018-Feb-13 03:28N 52°59' E 004°49'0 0.0
2018-Feb-13 02:58N 52°59' E 004°49'0 0.0
2018-Feb-13 02:28N 52°59' E 004°49'0 0.0
2018-Feb-13 01:58N 52°59' E 004°49'0 0.0
2018-Feb-13 01:28N 52°59' E 004°49'0 0.0
2018-Feb-13 00:58N 52°59' E 004°49'0 0.1
2018-Feb-13 00:25N 52°59' E 004°49'0 0.0
2018-Feb-12 23:55N 52°59' E 004°49'0 0.0
2018-Feb-12 23:28N 52°59' E 004°49'0 0.1
2018-Feb-12 22:58N 52°59' E 004°49'0 0.1
2018-Feb-12 22:28N 52°59' E 004°49'  
Track history (hours):
 
Tides and Currents Weather Stations Pressure Air Temp Water Temp Dewpoint Dewpoint Depression Visibility Wind Speed Wind Dir Waves Ship Positions

Causeway

Last reported at 2018-Feb-22 22:00 UTC. Time now 2018-Feb-22 22:24 UTC.
Position N 53°06' E 004°33'.

Length 91 m; draft 6.8 m.

Type: Dredging. MMSI: 210523000.

Date/timePositionNaut miles runAvg speedWind from/ knotsBaromVisibWave heightAir tempDewpointWater temp
2018-Feb-22 22:00N 53°06' E 004°33'0 0.5
2018-Feb-22 21:26N 53°06' E 004°33'0 1.1
2018-Feb-22 21:00N 53°06' E 004°33'611.4
2018-Feb-22 20:30N 53°03' E 004°41'1 1.6
2018-Feb-22 20:01N 53°03' E 004°41'0 0.0
2018-Feb-22 19:30N 53°03' E 004°41'2 4.7
2018-Feb-22 19:00N 53°04' E 004°38'4 7.8
2018-Feb-22 18:30N 53°06' E 004°33'0 0.5
2018-Feb-22 18:00N 53°06' E 004°33'3 5.1
2018-Feb-22 17:30N 53°05' E 004°36'4 7.3
2018-Feb-22 17:01N 53°03' E 004°41'0 0.1
2018-Feb-22 16:30N 53°03' E 004°41'1 1.1
2018-Feb-22 16:00N 53°03' E 004°40'0 0.8
2018-Feb-22 15:30N 53°03' E 004°40'0 0.2
2018-Feb-22 15:00N 53°03' E 004°40'0 0.1
2018-Feb-22 14:30N 53°03' E 004°39'0 0.2
2018-Feb-22 14:00N 53°03' E 004°39'0 0.2
2018-Feb-22 13:31N 53°03' E 004°39'1 1.2
2018-Feb-22 13:00N 53°03' E 004°39'4 7.5
2018-Feb-22 12:30N 53°05' E 004°33'1 1.1
2018-Feb-22 11:59N 53°06' E 004°33'0 0.8
2018-Feb-22 11:29N 53°06' E 004°33'611.9
2018-Feb-22 11:00N 53°03' E 004°41'0 1.0
2018-Feb-22 10:30N 53°03' E 004°41'0 0.2
2018-Feb-22 10:00N 53°03' E 004°41'3 6.2
2018-Feb-22 09:31N 53°05' E 004°37'3 5.8
2018-Feb-22 08:58N 53°06' E 004°33'1 1.2
2018-Feb-22 08:31N 53°06' E 004°33'1 1.6
2018-Feb-22 08:00N 53°06' E 004°34'611.3
2018-Feb-22 07:30N 53°03' E 004°41'0 0.1
2018-Feb-22 07:00N 53°03' E 004°41'0 0.0
2018-Feb-22 06:30N 53°03' E 004°41'3 5.9
2018-Feb-22 06:01N 53°04' E 004°38'3 6.5
2018-Feb-22 05:30N 53°06' E 004°33'0 0.8
2018-Feb-22 04:59N 53°06' E 004°33'1 2.5
2018-Feb-22 04:31N 53°05' E 004°34'5 9.2
2018-Feb-22 03:56N 53°03' E 004°41'0 0.1
2018-Feb-22 03:29N 53°03' E 004°41'0 0.0
2018-Feb-22 02:59N 53°03' E 004°41'3 6.2
2018-Feb-22 02:30N 53°04' E 004°37'3 6.3
2018-Feb-22 02:00N 53°06' E 004°32'0 0.7
2018-Feb-22 01:22N 53°06' E 004°33'0 1.1
2018-Feb-22 01:00N 53°06' E 004°33'611.2
2018-Feb-22 00:30N 53°03' E 004°41'1 1.2
2018-Feb-22 00:00N 53°03' E 004°41'0 0.0
2018-Feb-21 23:30N 53°03' E 004°41'0 0.6
2018-Feb-21 23:00N 53°03' E 004°41'4 7.9
2018-Feb-21 22:30N 53°05' E 004°36'2 3.5
2018-Feb-21 21:56N 53°06' E 004°33'0 1.0
2018-Feb-21 21:29N 53°06' E 004°33'4 8.2
2018-Feb-21 21:00N 53°04' E 004°38'2 4.5
2018-Feb-21 20:29N 53°03' E 004°41'0 0.0
2018-Feb-21 19:59N 53°03' E 004°41'2 3.9
2018-Feb-21 19:30N 53°04' E 004°39'4 8.3
2018-Feb-21 18:59N 53°06' E 004°33'0 0.2
2018-Feb-21 18:29N 53°06' E 004°33'2 3.8
2018-Feb-21 18:00N 53°04' E 004°33'713.4
2018-Feb-21 17:30N 52°57' E 004°33'5 9.5
2018-Feb-21 17:00N 52°54' E 004°39'611.9
2018-Feb-21 16:30N 52°58' E 004°46'1 2.2
2018-Feb-21 15:59N 52°57' E 004°47'0 0.0
2018-Feb-21 15:29N 52°57' E 004°47'0 0.0
2018-Feb-21 14:59N 52°57' E 004°47'0 0.0
2018-Feb-21 14:29N 52°57' E 004°47'0 0.0
2018-Feb-21 13:59N 52°57' E 004°47'0 0.0
2018-Feb-21 13:26N 52°57' E 004°47'0 0.0
2018-Feb-21 12:59N 52°57' E 004°47'0 0.0
2018-Feb-21 12:29N 52°57' E 004°47'0 0.0
2018-Feb-21 11:59N 52°57' E 004°47'0 0.0
2018-Feb-21 11:29N 52°57' E 004°47'0 0.0
2018-Feb-21 10:59N 52°57' E 004°47'0 0.0
2018-Feb-21 10:29N 52°57' E 004°47'0 0.0
2018-Feb-21 09:59N 52°57' E 004°47'0 0.0
2018-Feb-21 09:29N 52°57' E 004°47'0 0.0
2018-Feb-21 09:00N 52°57' E 004°47'1 2.1
2018-Feb-21 08:31N 52°58' E 004°46'713.1
2018-Feb-21 08:00N 52°53' E 004°38'5 9.1
2018-Feb-21 07:30N 52°57' E 004°33'5 9.6
2018-Feb-21 07:00N 53°01' E 004°37'3 6.6
2018-Feb-21 06:30N 53°03' E 004°41'0 0.0
2018-Feb-21 06:00N 53°03' E 004°41'0 0.2
2018-Feb-21 05:30N 53°03' E 004°41'3 6.9
2018-Feb-21 05:00N 53°04' E 004°36'3 5.3
2018-Feb-21 04:30N 53°06' E 004°33'0 0.8
2018-Feb-21 04:00N 53°06' E 004°33'4 8.5
2018-Feb-21 03:30N 53°03' E 004°39'2 3.5
2018-Feb-21 03:00N 53°03' E 004°41'0 0.0
2018-Feb-21 02:30N 53°03' E 004°41'2 3.5
2018-Feb-21 02:00N 53°03' E 004°39'4 8.9
2018-Feb-21 01:30N 53°06' E 004°32'0 0.9
2018-Feb-21 01:00N 53°06' E 004°33'1 1.9
2018-Feb-21 00:30N 53°05' E 004°34'510.7
2018-Feb-21 00:00N 53°03' E 004°41'0 0.1
2018-Feb-20 23:30N 53°03' E 004°41'0 0.0
2018-Feb-20 23:00N 53°03' E 004°41'4 7.7
2018-Feb-20 22:30N 53°05' E 004°36'2 4.5
2018-Feb-20 22:01N 53°06' E 004°33'0 0.8
2018-Feb-20 21:28N 53°06' E 004°33'2 5.3
2018-Feb-20 21:00N 53°05' E 004°36'4 7.8
2018-Feb-20 20:30N 53°03' E 004°41'0 0.0
2018-Feb-20 20:00N 53°03' E 004°41'2 3.4
2018-Feb-20 19:30N 53°04' E 004°39'4 8.6
2018-Feb-20 19:00N 53°06' E 004°33'0 0.4
2018-Feb-20 18:31N 53°06' E 004°33'1 1.0
2018-Feb-20 18:00N 53°06' E 004°33'510.4
2018-Feb-20 17:30N 53°03' E 004°40'1 2.2
2018-Feb-20 17:00N 53°03' E 004°41'0 0.0
2018-Feb-20 16:30N 53°03' E 004°41'1 3.0
2018-Feb-20 16:00N 53°03' E 004°39'5 9.3
2018-Feb-20 15:31N 53°06' E 004°33'0 0.5
2018-Feb-20 15:00N 53°06' E 004°33'2 3.4
2018-Feb-20 14:30N 53°05' E 004°35'5 9.2
2018-Feb-20 14:00N 53°03' E 004°41'0 0.0
2018-Feb-20 13:30N 53°03' E 004°41'1 1.2
2018-Feb-20 13:00N 53°03' E 004°40'510.0
2018-Feb-20 12:30N 53°05' E 004°33'1 1.3
2018-Feb-20 12:00N 53°06' E 004°33'0 0.5
2018-Feb-20 11:30N 53°06' E 004°33'4 8.3
2018-Feb-20 11:00N 53°04' E 004°39'2 3.9
2018-Feb-20 10:30N 53°03' E 004°41'0 0.0
2018-Feb-20 10:00N 53°03' E 004°41'1 1.8
2018-Feb-20 09:30N 53°03' E 004°40'510.1
2018-Feb-20 09:00N 53°06' E 004°34'0 0.2
2018-Feb-20 08:08N 53°06' E 004°33'1 6.4
2018-Feb-20 08:00N 53°06' E 004°34'4 9.0
2018-Feb-20 07:30N 53°03' E 004°40'1 1.6
2018-Feb-20 07:00N 53°03' E 004°41'0 0.1
2018-Feb-20 06:30N 53°03' E 004°41'2 4.7
2018-Feb-20 06:00N 53°04' E 004°38'4 7.6
2018-Feb-20 05:30N 53°06' E 004°33'0 0.2
2018-Feb-20 05:01N 53°06' E 004°33'0 0.5
2018-Feb-20 04:30N 53°06' E 004°33'611.7
2018-Feb-20 04:00N 53°03' E 004°41'0 0.1
2018-Feb-20 03:30N 53°03' E 004°41'0 0.1
2018-Feb-20 03:00N 53°03' E 004°41'4 8.0
2018-Feb-20 02:30N 53°05' E 004°36'2 4.5
2018-Feb-20 02:00N 53°06' E 004°33'0 0.9
2018-Feb-20 01:30N 53°06' E 004°33'3 6.8
2018-Feb-20 01:00N 53°04' E 004°37'3 5.4
2018-Feb-20 00:30N 53°03' E 004°41'0 0.0
2018-Feb-20 00:00N 53°03' E 004°41'0 0.6
2018-Feb-19 23:30N 53°03' E 004°41'510.1
2018-Feb-19 23:00N 53°06' E 004°34'1 1.6
2018-Feb-19 22:31N 53°06' E 004°33'1 1.1
2018-Feb-19 22:00N 53°06' E 004°33'510.2
2018-Feb-19 21:30N 53°03' E 004°40'1 2.3
2018-Feb-19 21:00N 53°03' E 004°41'0 0.2
2018-Feb-19 20:30N 53°03' E 004°41'1 2.5
2018-Feb-19 20:00N 53°04' E 004°40'5 9.6
2018-Feb-19 19:30N 53°06' E 004°33'0 0.5
2018-Feb-19 18:59N 53°06' E 004°33'0 1.0
2018-Feb-19 18:30N 53°06' E 004°33'611.3
2018-Feb-19 18:00N 53°03' E 004°41'1 1.3
2018-Feb-19 17:30N 53°03' E 004°41'0 0.1
2018-Feb-19 17:00N 53°03' E 004°41'2 4.3
2018-Feb-19 16:30N 53°04' E 004°38'4 7.7
2018-Feb-19 16:00N 53°06' E 004°33'0 0.5
2018-Feb-19 15:30N 53°06' E 004°33'1 1.2
2018-Feb-19 15:00N 53°06' E 004°34'611.3
2018-Feb-19 14:30N 53°03' E 004°41'0 0.1
2018-Feb-19 14:00N 53°03' E 004°41'0 0.9
2018-Feb-19 13:30N 53°03' E 004°41'5 9.3
2018-Feb-19 13:00N 53°05' E 004°34'1 2.2
2018-Feb-19 12:30N 53°06' E 004°33'1 1.0
2018-Feb-19 12:01N 53°06' E 004°33'611.6
2018-Feb-19 11:30N 53°03' E 004°41'0 0.2
2018-Feb-19 11:00N 53°03' E 004°41'0 0.0
2018-Feb-19 10:30N 53°03' E 004°41'0 0.4
2018-Feb-19 10:00N 53°03' E 004°41'3 5.2
2018-Feb-19 09:30N 53°04' E 004°38'3 6.5
2018-Feb-19 09:01N 53°06' E 004°33'0 0.7
2018-Feb-19 08:30N 53°06' E 004°33'1 1.4
2018-Feb-19 08:00N 53°06' E 004°34'611.7
2018-Feb-19 07:31N 53°03' E 004°42'0 0.1
2018-Feb-19 07:00N 53°03' E 004°41'0 0.1
2018-Feb-19 06:30N 53°03' E 004°41'0 0.3
2018-Feb-19 06:00N 53°03' E 004°41'3 6.7
2018-Feb-19 05:30N 53°04' E 004°37'3 4.4
2018-Feb-19 04:55N 53°06' E 004°33'0 0.3
2018-Feb-19 04:30N 53°06' E 004°33'2 3.9
2018-Feb-19 04:00N 53°05' E 004°36'4 8.5
2018-Feb-19 03:30N 53°03' E 004°41'0 0.1
2018-Feb-19 03:00N 53°03' E 004°41'0 0.1
2018-Feb-19 02:30N 53°03' E 004°41'4 7.4
2018-Feb-19 02:00N 53°05' E 004°36'2 4.5
2018-Feb-19 01:30N 53°06' E 004°33'0 0.4
2018-Feb-19 01:00N 53°06' E 004°33'3 6.4
2018-Feb-19 00:30N 53°04' E 004°37'3 5.9
2018-Feb-19 00:00N 53°03' E 004°41'0 0.1
2018-Feb-18 23:30N 53°03' E 004°41'0 0.9
2018-Feb-18 23:00N 53°03' E 004°41'1 1.2
2018-Feb-18 22:30N 53°03' E 004°40'4 7.5
2018-Feb-18 22:00N 53°05' E 004°35'1 2.6
2018-Feb-18 21:30N 53°06' E 004°33'0 0.9
2018-Feb-18 21:00N 53°06' E 004°33'3 6.7
2018-Feb-18 20:30N 53°04' E 004°38'3 5.7
2018-Feb-18 20:00N 53°03' E 004°41'0 0.0
2018-Feb-18 19:30N 53°03' E 004°41'0 0.7
2018-Feb-18 19:00N 53°03' E 004°41'4 8.1
2018-Feb-18 18:30N 53°05' E 004°36'2 3.6
2018-Feb-18 18:00N 53°06' E 004°33'0 0.8
2018-Feb-18 17:30N 53°06' E 004°33'2 4.2
2018-Feb-18 17:00N 53°05' E 004°36'4 8.3
2018-Feb-18 16:30N 53°03' E 004°41'0 0.0
2018-Feb-18 16:00N 53°03' E 004°41'0 0.9
2018-Feb-18 15:30N 53°03' E 004°41'4 8.4
2018-Feb-18 14:59N 53°05' E 004°35'1 2.9
2018-Feb-18 14:30N 53°06' E 004°32'0 0.8
2018-Feb-18 14:00N 53°06' E 004°33'4 8.6
2018-Feb-18 13:30N 53°03' E 004°39'2 3.4
2018-Feb-18 13:00N 53°03' E 004°41'0 0.0
2018-Feb-18 12:30N 53°03' E 004°41'3 6.8
2018-Feb-18 12:00N 53°04' E 004°36'3 5.6
2018-Feb-18 11:30N 53°06' E 004°33'0 0.6
2018-Feb-18 11:00N 53°06' E 004°33'4 7.6
2018-Feb-18 10:30N 53°04' E 004°38'2 4.7
2018-Feb-18 10:00N 53°03' E 004°41'0 0.1
2018-Feb-18 09:30N 53°03' E 004°41'1 1.7
2018-Feb-18 09:00N 53°03' E 004°40'510.3
2018-Feb-18 08:30N 53°06' E 004°33'1 1.1
2018-Feb-18 08:00N 53°06' E 004°33'1 1.2
2018-Feb-18 07:30N 53°06' E 004°33'510.2
2018-Feb-18 07:00N 53°03' E 004°40'1 2.5
2018-Feb-18 06:30N 53°03' E 004°41'0 0.0
2018-Feb-18 06:00N 53°03' E 004°41'0 0.7
2018-Feb-18 05:30N 53°03' E 004°41'0 0.9
2018-Feb-18 05:01N 53°03' E 004°41'4 8.7
2018-Feb-18 04:30N 53°05' E 004°34'1 2.3
2018-Feb-18 04:00N 53°06' E 004°33'0 0.5
2018-Feb-18 03:30N 53°06' E 004°33'510.4
2018-Feb-18 03:00N 53°03' E 004°40'1 1.7
2018-Feb-18 02:30N 53°03' E 004°41'0 0.1
2018-Feb-18 02:01N 53°03' E 004°41'0 0.3
2018-Feb-18 01:31N 53°03' E 004°41'510.3
2018-Feb-18 01:00N 53°06' E 004°34'1 1.4
2018-Feb-18 00:31N 53°06' E 004°33'1 1.1
2018-Feb-18 00:00N 53°06' E 004°33'510.4
2018-Feb-17 23:30N 53°03' E 004°40'1 1.8
2018-Feb-17 23:00N 53°03' E 004°41'0 0.3
2018-Feb-17 22:30N 53°03' E 004°41'3 5.7
2018-Feb-17 22:00N 53°04' E 004°37'3 6.3
2018-Feb-17 21:30N 53°06' E 004°33'0 0.2
2018-Feb-17 21:00N 53°06' E 004°33'3 5.4
2018-Feb-17 20:30N 53°05' E 004°37'3 6.8
2018-Feb-17 20:00N 53°03' E 004°41'0 0.0
2018-Feb-17 19:30N 53°03' E 004°42'1 2.1
2018-Feb-17 19:00N 53°03' E 004°40'510.1
2018-Feb-17 18:30N 53°06' E 004°33'0 0.4
2018-Feb-17 17:59N 53°06' E 004°33'1 1.3
2018-Feb-17 17:30N 53°06' E 004°33'612.1
2018-Feb-17 17:01N 53°03' E 004°41'0 0.1
2018-Feb-17 16:30N 53°03' E 004°41'0 0.3
2018-Feb-17 16:00N 53°03' E 004°42'1 2.4
2018-Feb-17 15:30N 53°04' E 004°40'4 8.7
2018-Feb-17 15:00N 53°05' E 004°33'1 1.1
2018-Feb-17 14:31N 53°06' E 004°33'1 2.0
2018-Feb-17 14:00N 53°07' E 004°33'611.0
2018-Feb-17 13:28N 53°10' E 004°41'1011.4
2018-Feb-17 12:37N 53°17' E 004°53'111.3
2018-Feb-17 12:30N 53°18' E 004°54'5 9.5
2018-Feb-17 12:00N 53°19' E 005°02'0 0.2
2018-Feb-17 11:30N 53°19' E 005°02'3 6.7
2018-Feb-17 11:00N 53°19' E 004°56'3 6.7
2018-Feb-17 10:30N 53°20' E 004°51'0 0.1
2018-Feb-17 10:00N 53°20' E 004°51'3 5.8
2018-Feb-17 09:30N 53°19' E 004°56'5 9.4
2018-Feb-17 09:00N 53°19' E 005°04'3 6.7
2018-Feb-17 08:30N 53°19' E 004°58'4 8.1
2018-Feb-17 08:00N 53°20' E 004°51'0 0.3
2018-Feb-17 07:29N 53°20' E 004°51'3 6.1
2018-Feb-17 07:00N 53°20' E 004°56'5 9.5
2018-Feb-17 06:31N 53°19' E 005°04'2 3.9
2018-Feb-17 06:00N 53°19' E 005°00'5 9.1
2018-Feb-17 05:29N 53°20' E 004°52'1 2.0
2018-Feb-17 05:00N 53°20' E 004°51'2 3.2
2018-Feb-17 04:30N 53°20' E 004°54'611.7
2018-Feb-17 04:00N 53°19' E 005°03'1 2.9
2018-Feb-17 03:30N 53°19' E 005°01'3 6.6
2018-Feb-17 03:00N 53°19' E 004°55'2 5.0
2018-Feb-17 02:30N 53°20' E 004°51'1 1.1
2018-Feb-17 02:01N 53°20' E 004°51'612.7
2018-Feb-17 01:30N 53°19' E 005°01'1 2.4
2018-Feb-17 01:01N 53°19' E 005°03'3 6.0
2018-Feb-17 00:30N 53°19' E 004°58'4 8.5
2018-Feb-17 00:00N 53°19' E 004°51'0 1.0
2018-Feb-16 23:30N 53°20' E 004°51'1 1.4
2018-Feb-16 23:00N 53°19' E 004°52'612.4
2018-Feb-16 22:30N 53°19' E 005°03'0 0.9
2018-Feb-16 22:00N 53°19' E 005°02'3 6.9
2018-Feb-16 21:30N 53°19' E 004°56'3 5.8
2018-Feb-16 21:00N 53°21' E 004°53'0 0.2
2018-Feb-16 20:31N 53°21' E 004°53'2 4.2
2018-Feb-16 20:00N 53°20' E 004°56'5 9.9
2018-Feb-16 19:31N 53°19' E 005°04'1 1.0
2018-Feb-16 19:00N 53°19' E 005°03'4 8.0
2018-Feb-16 18:30N 53°19' E 004°56'3 6.2
2018-Feb-16 17:59N 53°20' E 004°51'0 0.4
2018-Feb-16 17:28N 53°20' E 004°51'4 8.3
2018-Feb-16 17:00N 53°17' E 004°47'714.0
2018-Feb-16 16:30N 53°12' E 004°40'713.4
2018-Feb-16 16:00N 53°06' E 004°33'3 6.0
2018-Feb-16 15:30N 53°05' E 004°37'3 6.5
2018-Feb-16 15:00N 53°03' E 004°41'1 2.1
2018-Feb-16 14:30N 53°03' E 004°40'0 0.6
2018-Feb-16 14:00N 53°03' E 004°40'0 0.4
2018-Feb-16 13:30N 53°03' E 004°40'0 0.3
2018-Feb-16 13:00N 53°03' E 004°40'0 0.8
2018-Feb-16 12:30N 53°03' E 004°41'0 0.5
2018-Feb-16 12:00N 53°03' E 004°41'1 2.5
2018-Feb-16 11:30N 53°03' E 004°39'0 0.6
2018-Feb-16 11:00N 53°03' E 004°40'1 1.7
2018-Feb-16 10:31N 53°03' E 004°41'3 6.2
2018-Feb-16 10:00N 53°04' E 004°37'3 5.9
2018-Feb-16 09:30N 53°06' E 004°33'0 0.3
2018-Feb-16 09:00N 53°06' E 004°33'2 3.2
2018-Feb-16 08:30N 53°05' E 004°35'5 9.4
2018-Feb-16 08:00N 53°03' E 004°41'0 0.1
2018-Feb-16 07:30N 53°03' E 004°41'1 1.2
2018-Feb-16 07:00N 53°03' E 004°41'510.6
2018-Feb-16 06:30N 53°06' E 004°33'0 0.9
2018-Feb-16 05:59N 53°06' E 004°33'0 0.2
2018-Feb-16 05:30N 53°06' E 004°33'3 6.4
2018-Feb-16 05:00N 53°05' E 004°37'3 6.4
2018-Feb-16 04:30N 53°03' E 004°42'0 0.0
2018-Feb-16 04:00N 53°03' E 004°41'3 5.5
2018-Feb-16 03:30N 53°04' E 004°38'3 6.7
2018-Feb-16 03:00N 53°06' E 004°33'0 0.4
2018-Feb-16 02:31N 53°06' E 004°33'2 4.2
2018-Feb-16 02:00N 53°05' E 004°36'4 8.5
2018-Feb-16 01:30N 53°03' E 004°42'0 0.0
2018-Feb-16 01:00N 53°03' E 004°42'0 0.4
2018-Feb-16 00:30N 53°03' E 004°41'5 9.1
2018-Feb-16 00:00N 53°06' E 004°35'2 3.0
2018-Feb-15 23:30N 53°06' E 004°33'0 0.2
2018-Feb-15 23:00N 53°06' E 004°33'3 5.5
2018-Feb-15 22:30N 53°05' E 004°37'3 6.8
2018-Feb-15 22:00N 53°03' E 004°41'0 0.0
2018-Feb-15 21:30N 53°03' E 004°41'2 3.0
2018-Feb-15 21:00N 53°03' E 004°39'5 9.3
2018-Feb-15 20:30N 53°06' E 004°33'0 0.2
2018-Feb-15 20:00N 53°06' E 004°33'0 1.0
2018-Feb-15 19:30N 53°06' E 004°33'510.5
2018-Feb-15 19:00N 53°03' E 004°40'1 2.2
2018-Feb-15 18:30N 53°03' E 004°42'0 0.0
2018-Feb-15 18:00N 53°03' E 004°42'1 1.5
2018-Feb-15 17:30N 53°03' E 004°41'510.3
2018-Feb-15 17:01N 53°06' E 004°33'0 0.8
2018-Feb-15 16:30N 53°06' E 004°33'1 1.1
2018-Feb-15 16:00N 53°06' E 004°33'4 7.8
2018-Feb-15 15:30N 53°04' E 004°38'2 4.9
2018-Feb-15 15:00N 53°03' E 004°42'0 0.0
2018-Feb-15 14:30N 53°03' E 004°42'2 4.7
2018-Feb-15 14:00N 53°04' E 004°38'4 7.5
2018-Feb-15 13:31N 53°06' E 004°33'0 0.4
2018-Feb-15 13:00N 53°06' E 004°33'1 1.4
2018-Feb-15 12:30N 53°06' E 004°34'611.3
2018-Feb-15 12:00N 53°03' E 004°42'0 0.2
2018-Feb-15 11:30N 53°03' E 004°41'0 0.2
2018-Feb-15 11:00N 53°03' E 004°41'4 8.8
2018-Feb-15 10:30N 53°05' E 004°36'2 3.5
2018-Feb-15 10:00N 53°06' E 004°33'0 0.6
2018-Feb-15 09:30N 53°06' E 004°33'3 5.7
2018-Feb-15 09:00N 53°05' E 004°37'3 6.7
2018-Feb-15 08:30N 53°03' E 004°41'0 0.1
2018-Feb-15 08:00N 53°03' E 004°41'1 1.5
2018-Feb-15 07:30N 53°03' E 004°41'0 0.5
2018-Feb-15 06:52N 53°04' E 004°41'0 0.0
2018-Feb-15 06:25N 53°04' E 004°40'0 0.0
2018-Feb-15 05:52N 53°04' E 004°40'0 0.0
2018-Feb-15 05:28N 53°04' E 004°40'0 0.0
2018-Feb-15 04:58N 53°04' E 004°40'0 0.0
2018-Feb-15 04:28N 53°04' E 004°40'0 0.0
2018-Feb-15 03:58N 53°04' E 004°40'0 0.2
2018-Feb-15 03:30N 53°04' E 004°40'0 0.3
2018-Feb-15 03:00N 53°03' E 004°40'0 0.9
2018-Feb-15 02:30N 53°04' E 004°39'4 8.8
2018-Feb-15 02:00N 53°07' E 004°34'1 1.8
2018-Feb-15 01:27N 53°06' E 004°33'1 1.1
2018-Feb-15 00:56N 53°06' E 004°33'511.9
2018-Feb-15 00:30N 53°03' E 004°40'1 2.1
2018-Feb-15 00:00N 53°03' E 004°41'0 0.2
2018-Feb-14 23:30N 53°03' E 004°41'3 5.9
2018-Feb-14 23:00N 53°04' E 004°37'3 6.3
2018-Feb-14 22:30N 53°06' E 004°33'0 0.1
2018-Feb-14 22:00N 53°06' E 004°33'4 7.2
2018-Feb-14 21:30N 53°04' E 004°38'3 5.2
2018-Feb-14 21:00N 53°03' E 004°41'0 0.1
2018-Feb-14 20:29N 53°03' E 004°41'2 3.6
2018-Feb-14 20:00N 53°04' E 004°39'4 8.5
2018-Feb-14 19:30N 53°06' E 004°33'0 0.2
2018-Feb-14 19:00N 53°06' E 004°33'1 1.2
2018-Feb-14 18:30N 53°06' E 004°33'510.9
2018-Feb-14 18:00N 53°03' E 004°40'1 1.8
2018-Feb-14 17:30N 53°03' E 004°41'0 0.2
2018-Feb-14 17:00N 53°03' E 004°41'4 9.0
2018-Feb-14 16:30N 53°05' E 004°35'2 3.2
2018-Feb-14 16:00N 53°06' E 004°33'0 0.1
2018-Feb-14 15:27N 53°06' E 004°33'1 3.2
2018-Feb-14 15:00N 53°06' E 004°35'5 9.6
2018-Feb-14 14:30N 53°03' E 004°41'0 0.0
2018-Feb-14 14:00N 53°03' E 004°41'1 2.2
2018-Feb-14 13:30N 53°03' E 004°40'5 9.6
2018-Feb-14 13:00N 53°05' E 004°33'0 0.9
2018-Feb-14 12:30N 53°06' E 004°33'1 1.8
2018-Feb-14 12:00N 53°06' E 004°34'5 9.8
2018-Feb-14 11:30N 53°03' E 004°41'0 0.7
2018-Feb-14 11:00N 53°03' E 004°41'0 0.5
2018-Feb-14 10:30N 53°03' E 004°41'0 0.1
2018-Feb-14 10:00N 53°03' E 004°41'2 4.8
2018-Feb-14 09:30N 53°04' E 004°38'4 7.5
2018-Feb-14 09:00N 53°06' E 004°33'0 0.2
2018-Feb-14 08:30N 53°06' E 004°33'1 1.1
2018-Feb-14 08:00N 53°06' E 004°33'612.3
2018-Feb-14 07:30N 53°03' E 004°41'0 0.3
2018-Feb-14 07:00N 53°03' E 004°41'0 0.0
2018-Feb-14 06:30N 53°03' E 004°41'3 5.3
2018-Feb-14 06:00N 53°04' E 004°38'4 6.2
2018-Feb-14 05:26N 53°06' E 004°33'0 0.3
2018-Feb-14 04:54N 53°06' E 004°33'0 1.2
2018-Feb-14 04:30N 53°06' E 004°33'612.1
2018-Feb-14 04:00N 53°03' E 004°41'0 0.1
2018-Feb-14 03:30N 53°03' E 004°41'0 0.0
2018-Feb-14 03:00N 53°03' E 004°41'4 7.6
2018-Feb-14 02:30N 53°05' E 004°36'2 4.6
2018-Feb-14 02:00N 53°06' E 004°33'0 0.5
2018-Feb-14 01:29N 53°06' E 004°33'2 4.9
2018-Feb-14 01:01N 53°05' E 004°36'4 7.8
2018-Feb-14 00:30N 53°03' E 004°41'0 0.1
2018-Feb-14 00:00N 53°03' E 004°41'1 1.3
2018-Feb-13 23:30N 53°03' E 004°40'510.1
2018-Feb-13 23:00N 53°06' E 004°33'1 1.0
2018-Feb-13 22:30N 53°06' E 004°32'1 2.5
2018-Feb-13 22:00N 53°05' E 004°34'5 9.9
2018-Feb-13 21:30N 53°03' E 004°41'0 0.1
2018-Feb-13 21:00N 53°03' E 004°41'0 0.4
2018-Feb-13 20:30N 53°03' E 004°41'3 5.2
2018-Feb-13 20:00N 53°04' E 004°38'3 6.7
2018-Feb-13 19:29N 53°06' E 004°32'0 0.5
2018-Feb-13 19:00N 53°06' E 004°33'1 1.3
2018-Feb-13 18:30N 53°06' E 004°34'611.5
2018-Feb-13 18:00N 53°03' E 004°41'0 0.2
2018-Feb-13 17:30N 53°03' E 004°41'0 0.8
2018-Feb-13 17:00N 53°03' E 004°41'4 7.8
2018-Feb-13 16:30N 53°05' E 004°36'2 4.1
2018-Feb-13 16:00N 53°06' E 004°33'0 0.1
2018-Feb-13 15:30N 53°06' E 004°33'1 2.8
2018-Feb-13 15:00N 53°06' E 004°35'5 9.7
2018-Feb-13 14:30N 53°03' E 004°41'0 0.0
2018-Feb-13 14:00N 53°03' E 004°41'1 2.8
2018-Feb-13 13:30N 53°04' E 004°40'4 8.8
2018-Feb-13 13:00N 53°06' E 004°34'1 1.6
2018-Feb-13 12:30N 53°06' E 004°33'1 1.2
2018-Feb-13 12:00N 53°06' E 004°33'5 9.8
2018-Feb-13 11:30N 53°03' E 004°40'1 2.7
2018-Feb-13 11:00N 53°03' E 004°41'0 0.1
2018-Feb-13 10:30N 53°03' E 004°41'0 0.6
2018-Feb-13 10:00N 53°03' E 004°41'4 8.5
2018-Feb-13 09:30N 53°06' E 004°36'2 3.2
2018-Feb-13 09:00N 53°06' E 004°33'0 0.9
2018-Feb-13 08:30N 53°06' E 004°33'4 8.6
2018-Feb-13 08:00N 53°02' E 004°33'612.0
2018-Feb-13 07:30N 52°56' E 004°34'4 7.4
2018-Feb-13 07:01N 52°56' E 004°40'611.1
2018-Feb-13 06:31N 52°59' E 004°48'1 0.9
2018-Feb-13 05:58N 52°59' E 004°49'0 0.0
2018-Feb-13 05:28N 52°59' E 004°49'0 0.0
2018-Feb-13 04:58N 52°59' E 004°49'0 0.0
2018-Feb-13 04:28N 52°59' E 004°49'0 0.0
2018-Feb-13 03:58N 52°59' E 004°49'0 0.0
2018-Feb-13 03:28N 52°59' E 004°49'0 0.0
2018-Feb-13 02:58N 52°59' E 004°49'0 0.0
2018-Feb-13 02:28N 52°59' E 004°49'0 0.0
2018-Feb-13 01:58N 52°59' E 004°49'0 0.0
2018-Feb-13 01:28N 52°59' E 004°49'0 0.0
2018-Feb-13 00:58N 52°59' E 004°49'0 0.1
2018-Feb-13 00:25N 52°59' E 004°49'0 0.0
2018-Feb-12 23:55N 52°59' E 004°49'0 0.0
2018-Feb-12 23:28N 52°59' E 004°49'0 0.1
2018-Feb-12 22:58N 52°59' E 004°49'0 0.1
2018-Feb-12 22:28N 52°59' E 004°49'  

Dump ship's entire track history